sensor_id;sensor_type;location;lat;lon;timestamp;temperature;humidity
21216;DHT22;10765;50.954;5.322;2022-11-23T00:01:27;9.00;1.00
21216;DHT22;10765;50.954;5.322;2022-11-23T00:03:56;9.00;1.00
21216;DHT22;10765;50.954;5.322;2022-11-23T00:06:24;8.90;1.00
21216;DHT22;10765;50.954;5.322;2022-11-23T00:08:51;9.00;1.00
21216;DHT22;10765;50.954;5.322;2022-11-23T00:11:19;9.00;1.00
21216;DHT22;10765;50.954;5.322;2022-11-23T00:13:47;9.10;1.00
21216;DHT22;10765;50.954;5.322;2022-11-23T00:16:16;9.20;99.90
21216;DHT22;10765;50.954;5.322;2022-11-23T00:18:44;9.20;99.90
21216;DHT22;10765;50.954;5.322;2022-11-23T00:21:13;9.30;19.80
21216;DHT22;10765;50.954;5.322;2022-11-23T00:23:40;9.30;1.00
21216;DHT22;10765;50.954;5.322;2022-11-23T00:26:08;9.30;1.00
21216;DHT22;10765;50.954;5.322;2022-11-23T00:28:35;9.40;1.00
21216;DHT22;10765;50.954;5.322;2022-11-23T00:31:04;9.40;1.00
21216;DHT22;10765;50.954;5.322;2022-11-23T00:33:31;9.30;1.00
21216;DHT22;10765;50.954;5.322;2022-11-23T00:36:00;9.30;1.00
21216;DHT22;10765;50.954;5.322;2022-11-23T00:38:27;9.20;99.90
21216;DHT22;10765;50.954;5.322;2022-11-23T00:40:58;9.20;99.90
21216;DHT22;10765;50.954;5.322;2022-11-23T00:43:26;9.20;1.00
21216;DHT22;10765;50.954;5.322;2022-11-23T00:46:06;9.10;1.00
21216;DHT22;10765;50.954;5.322;2022-11-23T00:48:33;9.20;43.30
21216;DHT22;10765;50.954;5.322;2022-11-23T00:51:02;9.20;99.90
21216;DHT22;10765;50.954;5.322;2022-11-23T00:53:29;9.20;99.90
21216;DHT22;10765;50.954;5.322;2022-11-23T00:55:56;9.10;1.00
21216;DHT22;10765;50.954;5.322;2022-11-23T00:58:24;9.20;98.30
21216;DHT22;10765;50.954;5.322;2022-11-23T01:00:59;9.10;1.00
21216;DHT22;10765;50.954;5.322;2022-11-23T01:03:27;9.20;99.90
21216;DHT22;10765;50.954;5.322;2022-11-23T01:05:54;9.00;1.00
21216;DHT22;10765;50.954;5.322;2022-11-23T01:08:23;9.00;1.00
21216;DHT22;10765;50.954;5.322;2022-11-23T01:10:49;8.90;1.00
21216;DHT22;10765;50.954;5.322;2022-11-23T01:13:16;8.90;1.00
21216;DHT22;10765;50.954;5.322;2022-11-23T01:15:48;8.90;99.90
21216;DHT22;10765;50.954;5.322;2022-11-23T01:18:16;8.90;1.00
21216;DHT22;10765;50.954;5.322;2022-11-23T01:20:42;8.90;1.00
21216;DHT22;10765;50.954;5.322;2022-11-23T01:23:09;8.90;99.90
21216;DHT22;10765;50.954;5.322;2022-11-23T01:25:38;8.80;99.90
21216;DHT22;10765;50.954;5.322;2022-11-23T01:28:04;8.80;1.00
21216;DHT22;10765;50.954;5.322;2022-11-23T01:30:31;8.90;1.00
21216;DHT22;10765;50.954;5.322;2022-11-23T01:32:59;8.90;99.90
21216;DHT22;10765;50.954;5.322;2022-11-23T01:35:27;8.80;99.90
21216;DHT22;10765;50.954;5.322;2022-11-23T01:37:53;8.80;99.90
21216;DHT22;10765;50.954;5.322;2022-11-23T01:40:21;8.70;1.00
21216;DHT22;10765;50.954;5.322;2022-11-23T01:42:54;8.70;99.90
21216;DHT22;10765;50.954;5.322;2022-11-23T01:45:53;8.70;1.00
21216;DHT22;10765;50.954;5.322;2022-11-23T01:48:24;8.70;99.90
21216;DHT22;10765;50.954;5.322;2022-11-23T01:50:52;8.60;99.90
21216;DHT22;10765;50.954;5.322;2022-11-23T01:53:19;8.60;1.00
21216;DHT22;10765;50.954;5.322;2022-11-23T01:55:47;8.60;99.90
21216;DHT22;10765;50.954;5.322;2022-11-23T01:58:20;8.60;99.90
21216;DHT22;10765;50.954;5.322;2022-11-23T02:00:48;8.50;99.90
21216;DHT22;10765;50.954;5.322;2022-11-23T02:03:16;8.60;99.90
21216;DHT22;10765;50.954;5.322;2022-11-23T02:05:45;8.60;99.90
21216;DHT22;10765;50.954;5.322;2022-11-23T02:08:14;8.70;1.00
21216;DHT22;10765;50.954;5.322;2022-11-23T02:10:42;8.70;99.90
21216;DHT22;10765;50.954;5.322;2022-11-23T02:13:10;8.80;1.00
21216;DHT22;10765;50.954;5.322;2022-11-23T02:15:39;8.90;99.90
21216;DHT22;10765;50.954;5.322;2022-11-23T02:18:10;9.00;1.00
21216;DHT22;10765;50.954;5.322;2022-11-23T02:20:38;8.90;99.90
21216;DHT22;10765;50.954;5.322;2022-11-23T02:23:17;8.90;99.90
21216;DHT22;10765;50.954;5.322;2022-11-23T02:26:00;8.90;99.90
21216;DHT22;10765;50.954;5.322;2022-11-23T02:28:32;8.90;23.60
21216;DHT22;10765;50.954;5.322;2022-11-23T02:31:01;9.00;99.90
21216;DHT22;10765;50.954;5.322;2022-11-23T02:33:28;9.00;1.00
21216;DHT22;10765;50.954;5.322;2022-11-23T02:35:57;8.90;1.00
21216;DHT22;10765;50.954;5.322;2022-11-23T02:38:27;8.90;1.00
21216;DHT22;10765;50.954;5.322;2022-11-23T02:40:56;8.90;1.00
21216;DHT22;10765;50.954;5.322;2022-11-23T02:43:24;8.90;99.90
21216;DHT22;10765;50.954;5.322;2022-11-23T02:45:53;9.00;99.90
21216;DHT22;10765;50.954;5.322;2022-11-23T02:48:21;9.00;99.90
21216;DHT22;10765;50.954;5.322;2022-11-23T02:50:48;9.00;44.70
21216;DHT22;10765;50.954;5.322;2022-11-23T02:53:15;9.00;1.00
21216;DHT22;10765;50.954;5.322;2022-11-23T02:55:42;9.00;14.00
21216;DHT22;10765;50.954;5.322;2022-11-23T02:58:09;9.10;23.30
21216;DHT22;10765;50.954;5.322;2022-11-23T03:00:37;9.10;1.00
21216;DHT22;10765;50.954;5.322;2022-11-23T03:03:04;9.00;1.00
21216;DHT22;10765;50.954;5.322;2022-11-23T03:05:31;9.00;1.00
21216;DHT22;10765;50.954;5.322;2022-11-23T03:07:58;9.00;99.90
21216;DHT22;10765;50.954;5.322;2022-11-23T03:10:25;9.00;1.00
21216;DHT22;10765;50.954;5.322;2022-11-23T03:12:55;9.00;99.90
21216;DHT22;10765;50.954;5.322;2022-11-23T03:15:22;9.00;1.00
21216;DHT22;10765;50.954;5.322;2022-11-23T03:17:51;9.10;99.90
21216;DHT22;10765;50.954;5.322;2022-11-23T03:20:18;9.10;99.90
21216;DHT22;10765;50.954;5.322;2022-11-23T03:22:45;9.10;99.90
21216;DHT22;10765;50.954;5.322;2022-11-23T03:25:12;9.10;54.00
21216;DHT22;10765;50.954;5.322;2022-11-23T03:27:39;8.90;99.90
21216;DHT22;10765;50.954;5.322;2022-11-23T03:30:07;8.90;1.00
21216;DHT22;10765;50.954;5.322;2022-11-23T03:32:35;8.80;99.90
21216;DHT22;10765;50.954;5.322;2022-11-23T03:35:04;8.80;99.90
21216;DHT22;10765;50.954;5.322;2022-11-23T03:37:32;8.70;1.00
21216;DHT22;10765;50.954;5.322;2022-11-23T03:39:59;8.70;1.00
21216;DHT22;10765;50.954;5.322;2022-11-23T03:42:26;8.70;1.00
21216;DHT22;10765;50.954;5.322;2022-11-23T03:44:53;8.70;1.00
21216;DHT22;10765;50.954;5.322;2022-11-23T03:47:19;8.70;20.30
21216;DHT22;10765;50.954;5.322;2022-11-23T03:49:47;8.70;1.00
21216;DHT22;10765;50.954;5.322;2022-11-23T03:52:15;8.70;55.70
21216;DHT22;10765;50.954;5.322;2022-11-23T03:54:42;8.70;1.00
21216;DHT22;10765;50.954;5.322;2022-11-23T03:57:09;8.70;1.00
21216;DHT22;10765;50.954;5.322;2022-11-23T03:59:35;8.70;1.00
21216;DHT22;10765;50.954;5.322;2022-11-23T04:02:02;8.70;1.00
21216;DHT22;10765;50.954;5.322;2022-11-23T04:04:30;8.80;1.00
21216;DHT22;10765;50.954;5.322;2022-11-23T04:06:57;8.80;99.90
21216;DHT22;10765;50.954;5.322;2022-11-23T04:09:25;8.80;99.90
21216;DHT22;10765;50.954;5.322;2022-11-23T04:11:52;8.80;99.90
21216;DHT22;10765;50.954;5.322;2022-11-23T04:14:19;8.80;99.90
21216;DHT22;10765;50.954;5.322;2022-11-23T04:16:46;8.80;99.90
21216;DHT22;10765;50.954;5.322;2022-11-23T04:19:12;8.80;1.00
21216;DHT22;10765;50.954;5.322;2022-11-23T04:21:39;8.70;1.00
21216;DHT22;10765;50.954;5.322;2022-11-23T04:24:06;8.80;99.90
21216;DHT22;10765;50.954;5.322;2022-11-23T04:26:35;8.70;99.90
21216;DHT22;10765;50.954;5.322;2022-11-23T04:29:02;8.70;1.00
21216;DHT22;10765;50.954;5.322;2022-11-23T04:31:29;8.70;1.00
21216;DHT22;10765;50.954;5.322;2022-11-23T04:33:55;8.70;99.90
21216;DHT22;10765;50.954;5.322;2022-11-23T04:36:22;8.80;1.00
21216;DHT22;10765;50.954;5.322;2022-11-23T04:38:50;8.80;99.90
21216;DHT22;10765;50.954;5.322;2022-11-23T04:41:16;8.80;1.00
21216;DHT22;10765;50.954;5.322;2022-11-23T04:43:46;8.80;99.90
21216;DHT22;10765;50.954;5.322;2022-11-23T04:46:13;8.80;1.00
21216;DHT22;10765;50.954;5.322;2022-11-23T04:48:40;8.80;99.90
21216;DHT22;10765;50.954;5.322;2022-11-23T04:51:07;8.60;1.00
21216;DHT22;10765;50.954;5.322;2022-11-23T04:53:35;8.50;1.00
21216;DHT22;10765;50.954;5.322;2022-11-23T04:56:02;8.40;1.00
21216;DHT22;10765;50.954;5.322;2022-11-23T04:58:29;8.40;5.30
21216;DHT22;10765;50.954;5.322;2022-11-23T05:00:58;8.40;20.30
21216;DHT22;10765;50.954;5.322;2022-11-23T05:03:25;8.40;99.90
21216;DHT22;10765;50.954;5.322;2022-11-23T05:05:52;8.50;99.90
21216;DHT22;10765;50.954;5.322;2022-11-23T05:08:19;8.70;73.40
21216;DHT22;10765;50.954;5.322;2022-11-23T05:10:46;8.80;1.00
21216;DHT22;10765;50.954;5.322;2022-11-23T05:13:13;8.70;1.00
21216;DHT22;10765;50.954;5.322;2022-11-23T05:15:40;8.70;1.00
21216;DHT22;10765;50.954;5.322;2022-11-23T05:18:10;8.60;1.00
21216;DHT22;10765;50.954;5.322;2022-11-23T05:20:37;8.50;27.20
21216;DHT22;10765;50.954;5.322;2022-11-23T05:23:04;8.50;99.90
21216;DHT22;10765;50.954;5.322;2022-11-23T05:25:31;8.60;99.90
21216;DHT22;10765;50.954;5.322;2022-11-23T05:27:58;8.60;1.00
21216;DHT22;10765;50.954;5.322;2022-11-23T05:30:25;8.60;1.00
21216;DHT22;10765;50.954;5.322;2022-11-23T05:32:52;8.60;1.00
21216;DHT22;10765;50.954;5.322;2022-11-23T05:35:21;8.40;1.00
21216;DHT22;10765;50.954;5.322;2022-11-23T05:37:47;8.20;1.00
21216;DHT22;10765;50.954;5.322;2022-11-23T05:40:14;8.00;19.00
21216;DHT22;10765;50.954;5.322;2022-11-23T05:42:41;7.90;1.00
21216;DHT22;10765;50.954;5.322;2022-11-23T05:45:09;7.90;1.00
21216;DHT22;10765;50.954;5.322;2022-11-23T05:47:36;7.80;1.00
21216;DHT22;10765;50.954;5.322;2022-11-23T05:50:03;7.70;1.00
21216;DHT22;10765;50.954;5.322;2022-11-23T05:52:31;7.70;99.90
21216;DHT22;10765;50.954;5.322;2022-11-23T05:54:58;7.60;99.90
21216;DHT22;10765;50.954;5.322;2022-11-23T05:57:25;7.60;99.90
21216;DHT22;10765;50.954;5.322;2022-11-23T05:59:52;7.50;1.00
21216;DHT22;10765;50.954;5.322;2022-11-23T06:02:19;7.50;99.90
21216;DHT22;10765;50.954;5.322;2022-11-23T06:04:46;7.40;1.00
21216;DHT22;10765;50.954;5.322;2022-11-23T06:07:12;7.40;99.90
21216;DHT22;10765;50.954;5.322;2022-11-23T06:09:41;7.40;99.90
21216;DHT22;10765;50.954;5.322;2022-11-23T06:12:07;7.30;99.90
21216;DHT22;10765;50.954;5.322;2022-11-23T06:14:34;7.30;99.90
21216;DHT22;10765;50.954;5.322;2022-11-23T06:17:01;7.20;1.00
21216;DHT22;10765;50.954;5.322;2022-11-23T06:19:28;7.20;1.00
21216;DHT22;10765;50.954;5.322;2022-11-23T06:21:55;7.30;1.00
21216;DHT22;10765;50.954;5.322;2022-11-23T06:24:22;7.30;99.90
21216;DHT22;10765;50.954;5.322;2022-11-23T06:26:51;7.30;1.00
21216;DHT22;10765;50.954;5.322;2022-11-23T06:29:18;7.20;1.00
21216;DHT22;10765;50.954;5.322;2022-11-23T06:31:46;7.30;96.80
21216;DHT22;10765;50.954;5.322;2022-11-23T06:34:13;7.40;1.00
21216;DHT22;10765;50.954;5.322;2022-11-23T06:36:40;7.40;1.00
21216;DHT22;10765;50.954;5.322;2022-11-23T06:39:07;7.40;1.00
21216;DHT22;10765;50.954;5.322;2022-11-23T06:41:35;7.40;1.00
21216;DHT22;10765;50.954;5.322;2022-11-23T06:44:03;7.40;1.00
21216;DHT22;10765;50.954;5.322;2022-11-23T06:46:30;7.30;1.00
21216;DHT22;10765;50.954;5.322;2022-11-23T06:48:57;7.30;44.00
21216;DHT22;10765;50.954;5.322;2022-11-23T06:51:24;7.30;99.90
21216;DHT22;10765;50.954;5.322;2022-11-23T06:53:50;7.30;1.00
21216;DHT22;10765;50.954;5.322;2022-11-23T06:56:17;7.30;1.00
21216;DHT22;10765;50.954;5.322;2022-11-23T06:58:44;7.20;1.00
21216;DHT22;10765;50.954;5.322;2022-11-23T07:01:13;7.10;1.00
21216;DHT22;10765;50.954;5.322;2022-11-23T07:03:40;7.20;94.50
21216;DHT22;10765;50.954;5.322;2022-11-23T07:06:08;7.10;32.20
21216;DHT22;10765;50.954;5.322;2022-11-23T07:08:35;7.10;99.90
21216;DHT22;10765;50.954;5.322;2022-11-23T07:11:04;7.10;1.00
21216;DHT22;10765;50.954;5.322;2022-11-23T07:13:32;7.10;1.00
21216;DHT22;10765;50.954;5.322;2022-11-23T07:15:59;7.10;1.00
21216;DHT22;10765;50.954;5.322;2022-11-23T07:18:27;7.00;54.00
21216;DHT22;10765;50.954;5.322;2022-11-23T07:20:56;7.00;99.90
21216;DHT22;10765;50.954;5.322;2022-11-23T07:23:24;7.10;99.90
21216;DHT22;10765;50.954;5.322;2022-11-23T07:25:51;7.10;1.00
21216;DHT22;10765;50.954;5.322;2022-11-23T07:28:18;7.10;1.00
21216;DHT22;10765;50.954;5.322;2022-11-23T07:30:45;7.10;1.00
21216;DHT22;10765;50.954;5.322;2022-11-23T07:33:12;7.10;1.00
21216;DHT22;10765;50.954;5.322;2022-11-23T07:35:41;7.20;99.90
21216;DHT22;10765;50.954;5.322;2022-11-23T07:38:08;7.20;1.00
21216;DHT22;10765;50.954;5.322;2022-11-23T07:40:35;7.30;99.90
21216;DHT22;10765;50.954;5.322;2022-11-23T07:43:04;7.40;99.90
21216;DHT22;10765;50.954;5.322;2022-11-23T07:45:31;7.70;99.90
21216;DHT22;10765;50.954;5.322;2022-11-23T07:47:59;7.90;1.00
21216;DHT22;10765;50.954;5.322;2022-11-23T07:50:26;8.10;99.90
21216;DHT22;10765;50.954;5.322;2022-11-23T07:52:55;8.40;1.00
21216;DHT22;10765;50.954;5.322;2022-11-23T07:55:22;8.80;1.00
21216;DHT22;10765;50.954;5.322;2022-11-23T07:57:51;9.20;99.90
21216;DHT22;10765;50.954;5.322;2022-11-23T08:00:19;9.60;1.00
21216;DHT22;10765;50.954;5.322;2022-11-23T08:02:46;9.80;1.00
21216;DHT22;10765;50.954;5.322;2022-11-23T08:05:13;10.00;1.00
21216;DHT22;10765;50.954;5.322;2022-11-23T08:07:41;10.30;1.00
21216;DHT22;10765;50.954;5.322;2022-11-23T08:10:10;10.80;1.00
21216;DHT22;10765;50.954;5.322;2022-11-23T08:12:37;11.40;1.00
21216;DHT22;10765;50.954;5.322;2022-11-23T08:15:04;11.80;1.00
21216;DHT22;10765;50.954;5.322;2022-11-23T08:17:31;12.40;1.00
21216;DHT22;10765;50.954;5.322;2022-11-23T08:19:58;12.90;1.00
21216;DHT22;10765;50.954;5.322;2022-11-23T08:22:25;12.90;1.00
21216;DHT22;10765;50.954;5.322;2022-11-23T08:24:52;13.00;1.00
21216;DHT22;10765;50.954;5.322;2022-11-23T08:27:20;13.50;1.00
21216;DHT22;10765;50.954;5.322;2022-11-23T08:29:47;13.80;1.00
21216;DHT22;10765;50.954;5.322;2022-11-23T08:32:14;14.40;1.00
21216;DHT22;10765;50.954;5.322;2022-11-23T08:34:41;14.60;1.00
21216;DHT22;10765;50.954;5.322;2022-11-23T08:37:09;14.80;1.00
21216;DHT22;10765;50.954;5.322;2022-11-23T08:39:36;14.90;1.00
21216;DHT22;10765;50.954;5.322;2022-11-23T08:42:03;15.10;1.00
21216;DHT22;10765;50.954;5.322;2022-11-23T08:44:31;15.20;1.00
21216;DHT22;10765;50.954;5.322;2022-11-23T08:46:58;15.30;1.00
21216;DHT22;10765;50.954;5.322;2022-11-23T08:49:26;16.20;99.90
21216;DHT22;10765;50.954;5.322;2022-11-23T08:51:53;16.00;99.90
21216;DHT22;10765;50.954;5.322;2022-11-23T08:54:20;15.80;99.90
21216;DHT22;10765;50.954;5.322;2022-11-23T08:56:48;16.00;99.90
21216;DHT22;10765;50.954;5.322;2022-11-23T08:59:15;16.30;99.90
21216;DHT22;10765;50.954;5.322;2022-11-23T09:01:44;16.60;99.90
21216;DHT22;10765;50.954;5.322;2022-11-23T09:04:11;17.40;99.90
21216;DHT22;10765;50.954;5.322;2022-11-23T09:06:38;18.30;99.90
21216;DHT22;10765;50.954;5.322;2022-11-23T09:09:05;18.70;99.90
21216;DHT22;10765;50.954;5.322;2022-11-23T09:11:32;18.80;99.90
21216;DHT22;10765;50.954;5.322;2022-11-23T09:13:59;18.50;99.90
21216;DHT22;10765;50.954;5.322;2022-11-23T09:16:25;18.00;99.90
21216;DHT22;10765;50.954;5.322;2022-11-23T09:18:55;18.80;99.90
21216;DHT22;10765;50.954;5.322;2022-11-23T09:21:22;19.00;99.90
21216;DHT22;10765;50.954;5.322;2022-11-23T09:23:54;19.50;99.90
21216;DHT22;10765;50.954;5.322;2022-11-23T09:26:21;19.40;99.90
21216;DHT22;10765;50.954;5.322;2022-11-23T09:28:48;19.70;99.90
21216;DHT22;10765;50.954;5.322;2022-11-23T09:31:15;19.40;99.90
21216;DHT22;10765;50.954;5.322;2022-11-23T09:33:42;19.80;99.90
21216;DHT22;10765;50.954;5.322;2022-11-23T09:36:10;20.20;99.90
21216;DHT22;10765;50.954;5.322;2022-11-23T09:38:37;20.40;99.90
21216;DHT22;10765;50.954;5.322;2022-11-23T09:41:17;20.10;99.90
21216;DHT22;10765;50.954;5.322;2022-11-23T09:43:53;19.40;99.90
21216;DHT22;10765;50.954;5.322;2022-11-23T09:46:32;18.20;99.90
21216;DHT22;10765;50.954;5.322;2022-11-23T09:49:11;17.20;99.90
21216;DHT22;10765;50.954;5.322;2022-11-23T09:51:41;15.30;99.90
21216;DHT22;10765;50.954;5.322;2022-11-23T09:54:21;14.10;99.90
21216;DHT22;10765;50.954;5.322;2022-11-23T09:56:51;13.50;99.90
21216;DHT22;10765;50.954;5.322;2022-11-23T09:59:27;12.70;1.00
21216;DHT22;10765;50.954;5.322;2022-11-23T10:01:57;12.20;1.00
21216;DHT22;10765;50.954;5.322;2022-11-23T10:04:32;12.00;1.00
21216;DHT22;10765;50.954;5.322;2022-11-23T10:07:09;11.90;1.00
21216;DHT22;10765;50.954;5.322;2022-11-23T10:09:43;11.90;1.00
21216;DHT22;10765;50.954;5.322;2022-11-23T10:12:21;11.90;1.00
21216;DHT22;10765;50.954;5.322;2022-11-23T10:15:02;11.80;1.00
21216;DHT22;10765;50.954;5.322;2022-11-23T10:20:42;14.50;1.00
21216;DHT22;10765;50.954;5.322;2022-11-23T10:23:18;15.10;1.00
21216;DHT22;10765;50.954;5.322;2022-11-23T10:25:49;14.50;1.00
21216;DHT22;10765;50.954;5.322;2022-11-23T10:28:18;14.50;1.00
21216;DHT22;10765;50.954;5.322;2022-11-23T10:30:47;14.60;1.00
21216;DHT22;10765;50.954;5.322;2022-11-23T10:33:22;13.90;1.00
21216;DHT22;10765;50.954;5.322;2022-11-23T10:35:51;12.90;1.00
21216;DHT22;10765;50.954;5.322;2022-11-23T10:38:21;11.90;1.00
21216;DHT22;10765;50.954;5.322;2022-11-23T10:40:59;11.80;1.00
21216;DHT22;10765;50.954;5.322;2022-11-23T10:43:30;11.70;1.00
21216;DHT22;10765;50.954;5.322;2022-11-23T10:46:26;11.90;1.00
21216;DHT22;10765;50.954;5.322;2022-11-23T10:48:54;11.90;1.00
21216;DHT22;10765;50.954;5.322;2022-11-23T10:51:27;11.90;1.00
21216;DHT22;10765;50.954;5.322;2022-11-23T10:53:59;11.90;1.00
21216;DHT22;10765;50.954;5.322;2022-11-23T10:56:27;12.10;1.00
21216;DHT22;10765;50.954;5.322;2022-11-23T10:58:55;12.40;1.00
21216;DHT22;10765;50.954;5.322;2022-11-23T11:01:24;12.20;1.00
21216;DHT22;10765;50.954;5.322;2022-11-23T11:03:51;12.30;1.00
21216;DHT22;10765;50.954;5.322;2022-11-23T11:06:23;11.90;1.00
21216;DHT22;10765;50.954;5.322;2022-11-23T11:08:52;11.80;1.00
21216;DHT22;10765;50.954;5.322;2022-11-23T11:11:29;11.80;1.00
21216;DHT22;10765;50.954;5.322;2022-11-23T11:14:02;11.70;1.00
21216;DHT22;10765;50.954;5.322;2022-11-23T11:16:31;11.60;1.00
21216;DHT22;10765;50.954;5.322;2022-11-23T11:18:58;11.40;1.00
21216;DHT22;10765;50.954;5.322;2022-11-23T11:21:31;11.50;1.00
21216;DHT22;10765;50.954;5.322;2022-11-23T11:24:01;11.70;1.00
21216;DHT22;10765;50.954;5.322;2022-11-23T11:26:31;11.70;1.00
21216;DHT22;10765;50.954;5.322;2022-11-23T11:29:00;11.80;1.00
21216;DHT22;10765;50.954;5.322;2022-11-23T11:31:35;11.70;1.00
21216;DHT22;10765;50.954;5.322;2022-11-23T11:34:09;12.00;1.00
21216;DHT22;10765;50.954;5.322;2022-11-23T11:36:44;12.70;1.00
21216;DHT22;10765;50.954;5.322;2022-11-23T11:39:16;12.50;1.00
21216;DHT22;10765;50.954;5.322;2022-11-23T11:41:46;12.60;1.00
21216;DHT22;10765;50.954;5.322;2022-11-23T11:44:19;12.30;1.00
21216;DHT22;10765;50.954;5.322;2022-11-23T11:46:50;12.10;1.00
21216;DHT22;10765;50.954;5.322;2022-11-23T11:49:22;11.90;1.00
21216;DHT22;10765;50.954;5.322;2022-11-23T11:51:53;11.90;1.00
21216;DHT22;10765;50.954;5.322;2022-11-23T11:54:25;12.00;1.00
21216;DHT22;10765;50.954;5.322;2022-11-23T11:57:00;12.40;1.00
21216;DHT22;10765;50.954;5.322;2022-11-23T11:59:32;13.00;1.00
21216;DHT22;10765;50.954;5.322;2022-11-23T12:02:16;12.70;1.00
21216;DHT22;10765;50.954;5.322;2022-11-23T12:04:53;12.10;1.00
21216;DHT22;10765;50.954;5.322;2022-11-23T12:07:28;12.10;1.00
21216;DHT22;10765;50.954;5.322;2022-11-23T12:10:02;11.90;1.00
21216;DHT22;10765;50.954;5.322;2022-11-23T12:12:34;11.80;1.00
21216;DHT22;10765;50.954;5.322;2022-11-23T12:15:03;11.80;1.00
21216;DHT22;10765;50.954;5.322;2022-11-23T12:17:50;11.80;1.00
21216;DHT22;10765;50.954;5.322;2022-11-23T12:20:29;12.00;1.00
21216;DHT22;10765;50.954;5.322;2022-11-23T12:23:11;12.30;1.00
21216;DHT22;10765;50.954;5.322;2022-11-23T12:25:43;12.60;1.00
21216;DHT22;10765;50.954;5.322;2022-11-23T12:28:28;12.80;1.00
21216;DHT22;10765;50.954;5.322;2022-11-23T12:31:03;12.40;1.00
21216;DHT22;10765;50.954;5.322;2022-11-23T12:36:52;12.10;1.00
21216;DHT22;10765;50.954;5.322;2022-11-23T12:39:38;11.90;1.00
21216;DHT22;10765;50.954;5.322;2022-11-23T12:42:13;11.80;1.00
21216;DHT22;10765;50.954;5.322;2022-11-23T12:45:02;11.70;1.00
21216;DHT22;10765;50.954;5.322;2022-11-23T12:47:40;11.60;1.00
21216;DHT22;10765;50.954;5.322;2022-11-23T12:50:18;11.60;1.00
21216;DHT22;10765;50.954;5.322;2022-11-23T12:52:59;11.70;1.00
21216;DHT22;10765;50.954;5.322;2022-11-23T12:55:36;11.80;1.00
21216;DHT22;10765;50.954;5.322;2022-11-23T12:58:20;11.70;1.00
21216;DHT22;10765;50.954;5.322;2022-11-23T13:00:52;11.50;1.00
21216;DHT22;10765;50.954;5.322;2022-11-23T13:06:44;11.60;1.00
21216;DHT22;10765;50.954;5.322;2022-11-23T13:09:27;11.60;1.00
21216;DHT22;10765;50.954;5.322;2022-11-23T13:15:18;11.50;1.00
21216;DHT22;10765;50.954;5.322;2022-11-23T13:17:55;11.20;1.00
21216;DHT22;10765;50.954;5.322;2022-11-23T13:23:10;11.00;1.00
21216;DHT22;10765;50.954;5.322;2022-11-23T13:25:37;10.60;1.00
21216;DHT22;10765;50.954;5.322;2022-11-23T13:28:25;10.00;1.00
21216;DHT22;10765;50.954;5.322;2022-11-23T13:31:18;9.90;1.00
21216;DHT22;10765;50.954;5.322;2022-11-23T13:33:48;9.90;1.00
21216;DHT22;10765;50.954;5.322;2022-11-23T13:36:34;9.90;1.00
21216;DHT22;10765;50.954;5.322;2022-11-23T13:39:03;9.80;1.00
21216;DHT22;10765;50.954;5.322;2022-11-23T13:41:55;9.80;99.90
21216;DHT22;10765;50.954;5.322;2022-11-23T13:44:28;9.70;1.00
21216;DHT22;10765;50.954;5.322;2022-11-23T13:47:01;9.50;1.00
21216;DHT22;10765;50.954;5.322;2022-11-23T13:49:32;9.30;90.90
21216;DHT22;10765;50.954;5.322;2022-11-23T13:52:26;9.10;1.00
21216;DHT22;10765;50.954;5.322;2022-11-23T13:54:59;8.80;99.90
21216;DHT22;10765;50.954;5.322;2022-11-23T13:57:27;8.90;99.90
21216;DHT22;10765;50.954;5.322;2022-11-23T14:06:18;8.80;18.50
21216;DHT22;10765;50.954;5.322;2022-11-23T14:08:47;9.10;99.90
21216;DHT22;10765;50.954;5.322;2022-11-23T14:11:19;9.20;1.00
21216;DHT22;10765;50.954;5.322;2022-11-23T14:13:52;9.10;1.00
21216;DHT22;10765;50.954;5.322;2022-11-23T14:16:33;9.20;41.20
21216;DHT22;10765;50.954;5.322;2022-11-23T14:19:17;9.30;94.10
21216;DHT22;10765;50.954;5.322;2022-11-23T14:21:58;9.30;99.90
21216;DHT22;10765;50.954;5.322;2022-11-23T14:24:42;9.20;99.90
21216;DHT22;10765;50.954;5.322;2022-11-23T14:27:25;9.10;1.00
21216;DHT22;10765;50.954;5.322;2022-11-23T14:30:17;9.10;99.90
21216;DHT22;10765;50.954;5.322;2022-11-23T14:32:55;9.00;99.90
21216;DHT22;10765;50.954;5.322;2022-11-23T14:35:29;9.00;99.90
21216;DHT22;10765;50.954;5.322;2022-11-23T14:41:07;8.70;99.90
21216;DHT22;10765;50.954;5.322;2022-11-23T14:43:36;8.50;99.90
21216;DHT22;10765;50.954;5.322;2022-11-23T14:46:13;8.60;1.00
21216;DHT22;10765;50.954;5.322;2022-11-23T14:48:41;8.50;1.00
21216;DHT22;10765;50.954;5.322;2022-11-23T14:51:11;8.40;99.90
21216;DHT22;10765;50.954;5.322;2022-11-23T14:53:42;8.40;99.90
21216;DHT22;10765;50.954;5.322;2022-11-23T14:56:21;8.30;99.90
21216;DHT22;10765;50.954;5.322;2022-11-23T14:58:53;8.30;99.90
21216;DHT22;10765;50.954;5.322;2022-11-23T15:01:21;8.30;99.90
21216;DHT22;10765;50.954;5.322;2022-11-23T15:03:55;8.20;99.90
21216;DHT22;10765;50.954;5.322;2022-11-23T15:06:26;8.10;99.90
21216;DHT22;10765;50.954;5.322;2022-11-23T15:09:02;8.10;99.90
21216;DHT22;10765;50.954;5.322;2022-11-23T15:11:33;8.20;99.90
21216;DHT22;10765;50.954;5.322;2022-11-23T15:14:02;8.10;99.90
21216;DHT22;10765;50.954;5.322;2022-11-23T15:16:37;8.10;99.90
21216;DHT22;10765;50.954;5.322;2022-11-23T15:19:16;8.10;99.90
21216;DHT22;10765;50.954;5.322;2022-11-23T15:21:44;8.10;99.90
21216;DHT22;10765;50.954;5.322;2022-11-23T15:24:20;8.10;99.90
21216;DHT22;10765;50.954;5.322;2022-11-23T15:26:48;8.10;99.90
21216;DHT22;10765;50.954;5.322;2022-11-23T15:29:32;8.10;99.90
21216;DHT22;10765;50.954;5.322;2022-11-23T15:31:59;8.00;99.90
21216;DHT22;10765;50.954;5.322;2022-11-23T15:34:27;8.00;99.90
21216;DHT22;10765;50.954;5.322;2022-11-23T15:36:54;8.10;99.90
21216;DHT22;10765;50.954;5.322;2022-11-23T15:39:22;8.10;99.90
21216;DHT22;10765;50.954;5.322;2022-11-23T15:41:52;8.10;99.90
21216;DHT22;10765;50.954;5.322;2022-11-23T15:44:23;8.20;99.90
21216;DHT22;10765;50.954;5.322;2022-11-23T15:46:52;8.20;99.90
21216;DHT22;10765;50.954;5.322;2022-11-23T15:49:20;8.20;99.90
21216;DHT22;10765;50.954;5.322;2022-11-23T15:51:48;8.20;99.90
21216;DHT22;10765;50.954;5.322;2022-11-23T15:54:20;8.10;99.90
21216;DHT22;10765;50.954;5.322;2022-11-23T15:56:49;8.10;99.90
21216;DHT22;10765;50.954;5.322;2022-11-23T15:59:30;8.00;99.90
21216;DHT22;10765;50.954;5.322;2022-11-23T16:01:59;8.00;99.90
21216;DHT22;10765;50.954;5.322;2022-11-23T16:04:29;8.00;99.90
21216;DHT22;10765;50.954;5.322;2022-11-23T16:06:57;8.00;99.90
21216;DHT22;10765;50.954;5.322;2022-11-23T16:09:36;8.00;99.90
21216;DHT22;10765;50.954;5.322;2022-11-23T16:12:18;7.90;99.90
21216;DHT22;10765;50.954;5.322;2022-11-23T16:14:46;8.00;99.90
21216;DHT22;10765;50.954;5.322;2022-11-23T16:17:16;8.00;99.90
21216;DHT22;10765;50.954;5.322;2022-11-23T16:19:45;8.00;99.90
21216;DHT22;10765;50.954;5.322;2022-11-23T16:22:22;7.90;99.90
21216;DHT22;10765;50.954;5.322;2022-11-23T16:24:56;7.90;99.90
21216;DHT22;10765;50.954;5.322;2022-11-23T16:27:24;7.90;99.90
21216;DHT22;10765;50.954;5.322;2022-11-23T16:29:53;8.00;99.90
21216;DHT22;10765;50.954;5.322;2022-11-23T16:32:22;7.90;99.90
21216;DHT22;10765;50.954;5.322;2022-11-23T16:34:50;7.90;99.90